createdAt,value
2023-08-12T00:00:44.179Z,2.63
2023-08-12T00:03:11.576Z,2.70
2023-08-12T00:05:41.170Z,2.33
2023-08-12T00:08:08.448Z,2.55
2023-08-12T00:10:35.791Z,2.40
2023-08-12T00:13:03.289Z,2.85
2023-08-12T00:15:32.040Z,2.77
2023-08-12T00:17:59.367Z,2.35
2023-08-12T00:20:26.750Z,2.50
2023-08-12T00:22:53.995Z,2.70
2023-08-12T00:25:21.289Z,2.58
2023-08-12T00:27:48.693Z,2.50
2023-08-12T00:30:17.111Z,2.75
2023-08-12T00:32:45.920Z,3.05
2023-08-12T00:35:13.241Z,2.53
2023-08-12T00:37:40.633Z,3.03
2023-08-12T00:40:09.082Z,2.57
2023-08-12T00:42:36.648Z,2.60
2023-08-12T00:45:05.271Z,2.78
2023-08-12T00:47:32.723Z,2.67
2023-08-12T00:50:01.793Z,2.95
2023-08-12T00:52:29.348Z,2.53
2023-08-12T00:54:56.693Z,2.83
2023-08-12T00:57:24.110Z,2.80
2023-08-12T00:59:51.512Z,2.78
2023-08-12T01:02:18.947Z,2.88
2023-08-12T01:04:46.332Z,2.80
2023-08-12T01:07:15.135Z,2.75
2023-08-12T01:09:42.612Z,2.72
2023-08-12T01:12:14.898Z,3.00
2023-08-12T01:14:47.192Z,2.80
2023-08-12T01:17:16.575Z,2.93
2023-08-12T01:19:46.165Z,2.60
2023-08-12T01:22:15.604Z,2.40
2023-08-12T01:24:45.208Z,2.30
2023-08-12T01:27:14.085Z,2.85
2023-08-12T01:29:45.378Z,2.70
2023-08-12T01:32:22.920Z,2.75
2023-08-12T01:34:55.068Z,2.88
2023-08-12T01:37:26.911Z,2.65
2023-08-12T01:39:57.998Z,2.45
2023-08-12T01:42:26.320Z,2.90
2023-08-12T01:44:53.994Z,2.45
2023-08-12T01:47:21.286Z,2.55
2023-08-12T01:49:48.593Z,2.90
2023-08-12T01:52:16.561Z,2.65
2023-08-12T01:54:43.876Z,2.93
2023-08-12T01:57:12.962Z,2.22
2023-08-12T01:59:40.541Z,2.70
2023-08-12T02:02:08.648Z,2.72
2023-08-12T02:04:37.864Z,2.80
2023-08-12T02:07:05.560Z,2.57
2023-08-12T02:09:33.036Z,2.90
2023-08-12T02:12:00.362Z,2.47
2023-08-12T02:14:29.101Z,2.45
2023-08-12T02:16:56.421Z,3.00
2023-08-12T02:19:23.635Z,2.70
2023-08-12T02:21:50.912Z,2.72
2023-08-12T02:24:18.249Z,2.70
2023-08-12T02:26:45.501Z,2.80
2023-08-12T02:29:12.794Z,2.70
2023-08-12T02:31:41.502Z,2.63
2023-08-12T02:34:08.733Z,2.35
2023-08-12T02:36:35.988Z,2.28
2023-08-12T02:39:03.417Z,2.90
2023-08-12T02:41:30.709Z,2.70
2023-08-12T02:43:58.112Z,2.40
2023-08-12T02:46:26.760Z,2.47
2023-08-12T02:48:55.478Z,2.47
2023-08-12T02:51:22.931Z,2.55
2023-08-12T02:53:50.208Z,2.20
2023-08-12T02:56:17.467Z,2.50
2023-08-12T02:58:44.780Z,2.63
2023-08-12T03:01:12.143Z,2.35
2023-08-12T03:03:39.627Z,2.17
2023-08-12T03:06:08.388Z,2.38
2023-08-12T03:08:35.650Z,2.70
2023-08-12T03:11:03.866Z,2.60
2023-08-12T03:13:31.350Z,2.95
2023-08-12T03:15:58.977Z,2.33
2023-08-12T03:18:26.463Z,2.50
2023-08-12T03:20:53.758Z,2.80
2023-08-12T03:23:22.490Z,2.78
2023-08-12T03:25:49.728Z,2.67
2023-08-12T03:28:17.507Z,2.67
2023-08-12T03:30:52.046Z,2.53
2023-08-12T03:33:19.480Z,2.60
2023-08-12T03:35:47.527Z,2.53
2023-08-12T03:38:14.801Z,2.63
2023-08-12T03:40:43.794Z,2.58
2023-08-12T03:43:11.179Z,2.83
2023-08-12T03:45:42.304Z,2.60
2023-08-12T03:48:09.656Z,2.63
2023-08-12T03:50:37.338Z,2.75
2023-08-12T03:53:05.503Z,2.90
2023-08-12T03:55:33.460Z,3.05
2023-08-12T03:58:02.753Z,2.60
2023-08-12T04:00:30.096Z,2.63
2023-08-12T04:02:57.576Z,2.65
2023-08-12T04:05:25.027Z,2.90
2023-08-12T04:07:52.320Z,2.75
2023-08-12T04:10:19.776Z,3.00
2023-08-12T04:12:47.056Z,2.90
2023-08-12T04:15:15.792Z,2.78
2023-08-12T04:17:43.062Z,2.65
2023-08-12T04:20:10.964Z,2.65
2023-08-12T04:22:38.330Z,2.90
2023-08-12T04:25:06.940Z,2.67
2023-08-12T04:27:34.391Z,3.08
2023-08-12T04:30:01.734Z,2.78
2023-08-12T04:32:30.426Z,2.85
2023-08-12T04:34:57.734Z,2.73
2023-08-12T04:37:25.952Z,2.90
2023-08-12T04:39:53.229Z,2.70
2023-08-12T04:42:20.475Z,2.95
2023-08-12T04:44:47.674Z,2.90
2023-08-12T04:47:15.101Z,3.00
2023-08-12T04:49:43.731Z,2.47
2023-08-12T04:52:10.977Z,2.72
2023-08-12T04:54:38.336Z,2.72
2023-08-12T04:57:06.853Z,2.67
2023-08-12T04:59:34.175Z,2.87
2023-08-12T05:02:17.658Z,2.55
2023-08-12T05:04:48.864Z,2.60
2023-08-12T05:07:16.201Z,2.85
2023-08-12T05:09:45.349Z,2.85
2023-08-12T05:12:13.282Z,2.70
2023-08-12T05:14:41.365Z,2.67
2023-08-12T05:17:08.905Z,2.58
2023-08-12T05:19:36.379Z,2.80
2023-08-12T05:22:05.358Z,2.53
2023-08-12T05:24:32.907Z,2.20
2023-08-12T05:27:00.193Z,2.45
2023-08-12T05:29:27.502Z,2.97
2023-08-12T05:31:54.942Z,2.70
2023-08-12T05:34:22.242Z,2.70
2023-08-12T05:36:49.615Z,2.80
2023-08-12T05:39:19.457Z,2.38
2023-08-12T05:41:47.579Z,2.75
2023-08-12T05:44:15.250Z,2.60
2023-08-12T05:46:42.511Z,2.55
2023-08-12T05:49:09.903Z,2.70
2023-08-12T05:51:37.182Z,2.67
2023-08-12T05:54:04.794Z,2.55
2023-08-12T05:56:33.541Z,3.20
2023-08-12T05:59:00.801Z,3.08
2023-08-12T06:01:28.106Z,3.03
2023-08-12T06:03:55.618Z,3.33
2023-08-12T06:06:24.038Z,2.72
2023-08-12T06:08:51.348Z,3.45
2023-08-12T06:11:18.684Z,3.70
2023-08-12T06:13:47.402Z,3.70
2023-08-12T06:16:14.745Z,3.53
2023-08-12T06:18:42.105Z,3.65
2023-08-12T06:21:09.421Z,3.53
2023-08-12T06:23:36.732Z,3.78
2023-08-12T06:26:04.055Z,3.90
2023-08-12T06:28:31.458Z,3.58
2023-08-12T06:31:01.258Z,3.15
2023-08-12T06:33:28.488Z,3.72
2023-08-12T06:35:55.845Z,3.40
2023-08-12T06:38:23.156Z,3.50
2023-08-12T06:40:50.487Z,3.67
2023-08-12T06:43:17.977Z,3.22
2023-08-12T06:45:45.356Z,3.30
2023-08-12T06:48:14.072Z,3.70
2023-08-12T06:50:41.472Z,3.57
2023-08-12T06:53:08.844Z,3.85
2023-08-12T06:55:37.247Z,3.10
2023-08-12T06:58:04.868Z,3.55
2023-08-12T07:00:32.156Z,3.17
2023-08-12T07:02:59.472Z,3.43
2023-08-12T07:05:28.278Z,3.75
2023-08-12T07:07:55.453Z,3.70
2023-08-12T07:10:24.238Z,3.00
2023-08-12T07:12:51.629Z,2.88
2023-08-12T07:15:18.991Z,2.80
2023-08-12T07:17:46.462Z,2.67
2023-08-12T07:20:13.827Z,2.35
2023-08-12T07:22:42.554Z,2.40
2023-08-12T07:25:10.943Z,3.53
2023-08-12T07:27:38.435Z,3.00
2023-08-12T07:30:09.919Z,2.80
2023-08-12T07:32:38.798Z,3.33
2023-08-12T07:35:09.741Z,2.63
2023-08-12T07:37:37.313Z,3.08
2023-08-12T07:40:07.034Z,2.57
2023-08-12T07:42:34.958Z,2.35
2023-08-12T07:45:02.231Z,2.50
2023-08-12T07:47:30.097Z,2.63
2023-08-12T07:49:57.418Z,2.80
2023-08-12T07:52:24.720Z,2.67
2023-08-12T07:54:54.385Z,2.50
2023-08-12T07:57:25.335Z,2.60
2023-08-12T07:59:52.677Z,2.30
2023-08-12T08:02:19.988Z,2.50
2023-08-12T08:04:50.398Z,2.40
2023-08-12T08:07:18.126Z,2.20
2023-08-12T08:09:45.723Z,2.17
2023-08-12T08:12:13.569Z,2.10
2023-08-12T08:14:42.710Z,2.40
2023-08-12T08:17:11.483Z,2.30
2023-08-12T08:19:39.031Z,2.33
2023-08-12T08:22:06.370Z,2.60
2023-08-12T08:24:33.730Z,2.50
2023-08-12T08:27:01.130Z,2.45
2023-08-12T08:29:28.455Z,2.20
2023-08-12T08:31:57.070Z,2.60
2023-08-12T08:34:24.442Z,2.53
2023-08-12T08:36:52.742Z,2.45
2023-08-12T08:39:20.170Z,2.60
2023-08-12T08:41:49.780Z,2.80
2023-08-12T08:44:18.110Z,2.70
2023-08-12T08:46:47.098Z,2.28
2023-08-12T08:49:16.598Z,2.65
2023-08-12T08:51:44.810Z,2.40
2023-08-12T08:54:13.187Z,1.80
2023-08-12T08:56:45.313Z,2.17
2023-08-12T08:59:15.579Z,2.22
2023-08-12T09:01:45.262Z,1.88
2023-08-12T09:04:13.441Z,2.55
2023-08-12T09:06:43.693Z,2.27
2023-08-12T09:09:15.755Z,1.90
2023-08-12T09:11:43.071Z,1.98
2023-08-12T09:14:10.413Z,1.80
2023-08-12T09:16:37.757Z,1.42
2023-08-12T09:19:06.083Z,1.70
2023-08-12T09:21:33.413Z,1.73
2023-08-12T09:24:04.736Z,1.60
2023-08-12T09:26:32.060Z,1.85
2023-08-12T09:29:00.423Z,1.60
2023-08-12T09:31:29.542Z,2.10
2023-08-12T09:33:59.732Z,1.65
2023-08-12T09:36:31.188Z,1.98
2023-08-12T09:38:59.703Z,1.75
2023-08-12T09:41:29.708Z,1.60
2023-08-12T09:43:58.350Z,1.77
2023-08-12T09:46:25.790Z,2.15
2023-08-12T09:48:53.981Z,1.70
2023-08-12T09:51:23.621Z,2.05
2023-08-12T09:53:51.479Z,1.45
2023-08-12T09:56:21.863Z,1.80
2023-08-12T09:58:51.600Z,1.80
2023-08-12T10:01:21.999Z,1.55
2023-08-12T10:03:51.473Z,1.88
2023-08-12T10:06:19.487Z,2.00
2023-08-12T10:08:47.763Z,2.10
2023-08-12T10:11:15.772Z,1.80
2023-08-12T10:13:43.571Z,1.40
2023-08-12T10:16:14.171Z,2.20
2023-08-12T10:18:42.336Z,1.85
2023-08-12T10:21:12.265Z,1.60
2023-08-12T10:23:40.342Z,1.70
2023-08-12T10:26:08.465Z,1.40
2023-08-12T10:28:38.617Z,1.70
2023-08-12T10:31:07.337Z,1.65
2023-08-12T10:33:39.004Z,2.17
2023-08-12T10:36:07.441Z,1.98
2023-08-12T10:38:35.372Z,2.22
2023-08-12T10:41:19.562Z,1.92
2023-08-12T10:43:54.706Z,1.35
2023-08-12T10:46:30.674Z,1.87
2023-08-12T10:49:03.759Z,2.35
2023-08-12T10:51:48.299Z,1.67
2023-08-12T10:54:17.280Z,1.48
2023-08-12T10:57:07.289Z,2.35
2023-08-12T10:59:54.764Z,2.03
2023-08-12T11:02:27.381Z,2.05
2023-08-12T11:04:58.006Z,1.60
2023-08-12T11:07:33.757Z,2.00
2023-08-12T11:10:06.350Z,1.77
2023-08-12T11:12:35.788Z,2.00
2023-08-12T11:15:05.489Z,2.15
2023-08-12T11:17:37.342Z,2.00
2023-08-12T11:20:08.081Z,2.13
2023-08-12T11:22:38.595Z,2.13
2023-08-12T11:25:09.918Z,2.53
2023-08-12T11:27:41.951Z,2.33
2023-08-12T11:30:13.230Z,2.28
2023-08-12T11:32:41.209Z,7.30
2023-08-12T11:35:12.202Z,7.30
2023-08-12T11:37:40.682Z,2.47
2023-08-12T11:40:10.506Z,2.80
2023-08-12T11:42:40.142Z,2.63
2023-08-12T11:45:08.825Z,2.85
2023-08-12T11:47:36.567Z,2.90
2023-08-12T11:50:04.970Z,2.73
2023-08-12T11:52:38.735Z,7.30
2023-08-12T11:55:09.278Z,3.70
2023-08-12T11:57:36.854Z,3.33
2023-08-12T12:00:14.623Z,3.47
2023-08-12T12:02:48.125Z,3.13
2023-08-12T12:05:16.164Z,3.00
2023-08-12T12:07:45.316Z,2.53
2023-08-12T12:10:14.656Z,3.10
2023-08-12T12:12:45.970Z,2.50
2023-08-12T12:15:15.090Z,3.70
2023-08-12T12:17:42.507Z,2.80
2023-08-12T12:20:13.356Z,3.33
2023-08-12T12:22:47.282Z,3.10
2023-08-12T12:25:15.973Z,2.88
2023-08-12T12:27:44.346Z,3.13
2023-08-12T12:30:13.971Z,3.30
2023-08-12T12:32:41.460Z,3.63
2023-08-12T12:35:09.314Z,3.17
2023-08-12T12:37:37.455Z,3.25
2023-08-12T12:40:08.589Z,3.40
2023-08-12T12:42:36.282Z,3.60
2023-08-12T12:45:03.931Z,3.15
2023-08-12T12:47:31.592Z,3.40
2023-08-12T12:49:58.995Z,3.50
2023-08-12T12:52:26.290Z,3.43
2023-08-12T12:54:53.639Z,3.38
2023-08-12T12:57:22.332Z,2.78
2023-08-12T12:59:49.731Z,3.08
2023-08-12T13:02:17.507Z,3.40
2023-08-12T13:04:46.215Z,2.93
2023-08-12T13:07:13.621Z,3.17
2023-08-12T13:09:42.156Z,3.20
2023-08-12T13:12:09.720Z,2.78
2023-08-12T13:14:38.444Z,2.78
2023-08-12T13:17:05.763Z,2.90
2023-08-12T13:19:33.221Z,2.63
2023-08-12T13:22:03.256Z,3.47
2023-08-12T13:24:30.565Z,3.03
2023-08-12T13:27:00.259Z,2.17
2023-08-12T13:29:27.855Z,2.50
2023-08-12T13:31:56.558Z,2.60
2023-08-12T13:34:24.095Z,2.25
2023-08-12T13:36:51.387Z,2.17
2023-08-12T13:39:19.157Z,2.13
2023-08-12T13:41:46.424Z,2.37
2023-08-12T13:44:14.212Z,2.40
2023-08-12T13:46:41.497Z,2.38
2023-08-12T13:49:10.357Z,2.85
2023-08-12T13:51:37.885Z,1.85
2023-08-12T13:54:06.020Z,2.63
2023-08-12T13:56:33.341Z,2.45
2023-08-12T13:59:00.696Z,2.50
2023-08-12T14:01:28.095Z,2.25
2023-08-12T14:03:55.443Z,2.50
2023-08-12T14:06:24.176Z,2.70
2023-08-12T14:08:51.451Z,2.20
2023-08-12T14:11:18.943Z,2.20
2023-08-12T14:13:46.204Z,2.58
2023-08-12T14:16:13.608Z,2.92
2023-08-12T14:18:41.068Z,2.73
2023-08-12T14:21:08.393Z,3.08
2023-08-12T14:23:37.161Z,2.40
2023-08-12T14:26:04.389Z,2.63
2023-08-12T14:28:31.718Z,2.80
2023-08-12T14:30:59.288Z,2.30
2023-08-12T14:33:27.282Z,2.80
2023-08-12T14:35:55.575Z,2.47
2023-08-12T14:38:23.000Z,2.67
2023-08-12T14:40:51.809Z,2.45
2023-08-12T14:43:19.176Z,2.43
2023-08-12T14:45:48.791Z,2.40
2023-08-12T14:48:19.557Z,2.00
2023-08-12T14:50:46.861Z,2.63
2023-08-12T14:53:14.274Z,2.97
2023-08-12T14:55:42.186Z,3.03
2023-08-12T14:58:10.962Z,2.90
2023-08-12T15:00:38.461Z,2.30
2023-08-12T15:03:06.114Z,2.40
2023-08-12T15:05:33.595Z,2.63
2023-08-12T15:08:01.801Z,2.67
2023-08-12T15:11:44.960Z,2.67
2023-08-12T15:14:13.714Z,2.10
2023-08-12T15:16:41.078Z,2.40
2023-08-12T15:19:08.503Z,2.20
2023-08-12T15:21:35.862Z,2.47
2023-08-12T15:24:03.303Z,2.58
2023-08-12T15:26:32.887Z,2.33
2023-08-12T15:29:00.419Z,1.98
2023-08-12T15:31:29.789Z,2.33
2023-08-12T15:33:57.062Z,2.30
2023-08-12T15:36:24.420Z,2.60
2023-08-12T15:38:51.684Z,2.65
2023-08-12T15:41:19.213Z,2.42
2023-08-12T15:43:46.514Z,2.35
2023-08-12T15:46:13.999Z,2.47
2023-08-12T15:48:44.053Z,2.35
2023-08-12T15:51:11.556Z,2.72
2023-08-12T15:53:38.887Z,2.70
2023-08-12T15:56:06.194Z,2.33
2023-08-12T15:58:33.608Z,2.47
2023-08-12T16:01:01.004Z,2.35
2023-08-12T16:03:28.374Z,2.50
2023-08-12T16:06:02.339Z,2.38
2023-08-12T16:08:29.880Z,1.90
2023-08-12T16:10:57.186Z,2.70
2023-08-12T16:13:24.580Z,2.50
2023-08-12T16:15:52.020Z,2.22
2023-08-12T16:18:19.394Z,2.70
2023-08-12T16:20:46.729Z,2.65
2023-08-12T16:23:15.485Z,2.90
2023-08-12T16:25:42.904Z,2.63
2023-08-12T16:28:10.261Z,2.08
2023-08-12T16:30:37.598Z,2.30
2023-08-12T16:33:05.615Z,2.47
2023-08-12T16:35:33.123Z,2.30
2023-08-12T16:38:00.465Z,3.00
2023-08-12T16:40:29.328Z,2.33
2023-08-12T16:42:56.641Z,2.38
2023-08-12T16:45:24.021Z,2.03
2023-08-12T16:47:51.442Z,2.60
2023-08-12T16:50:18.934Z,2.67
2023-08-12T16:52:46.238Z,2.53
2023-08-12T16:55:13.545Z,2.25
2023-08-12T16:57:42.283Z,2.13
2023-08-12T17:00:11.912Z,2.70
2023-08-12T17:02:39.269Z,2.70
2023-08-12T17:05:08.263Z,2.85
2023-08-12T17:07:35.517Z,2.22
2023-08-12T17:10:02.913Z,2.10
2023-08-12T17:12:30.599Z,2.50
2023-08-12T17:14:59.481Z,2.60
2023-08-12T17:17:27.233Z,2.15
2023-08-12T17:19:54.666Z,2.50
2023-08-12T17:22:22.347Z,2.38
2023-08-12T17:24:49.707Z,2.57
2023-08-12T17:27:17.027Z,2.70
2023-08-12T17:29:44.334Z,3.10
2023-08-12T17:32:13.345Z,2.83
2023-08-12T17:34:40.842Z,2.78
2023-08-12T17:37:08.256Z,3.00
2023-08-12T17:39:36.542Z,3.00
2023-08-12T17:42:04.007Z,2.40
2023-08-12T17:44:33.953Z,3.15
2023-08-12T17:50:06.923Z,2.40
2023-08-12T17:52:34.921Z,2.60
2023-08-12T17:55:02.153Z,2.63
2023-08-12T17:57:29.507Z,2.97
2023-08-12T17:59:56.724Z,3.33
2023-08-12T18:02:24.306Z,3.00
2023-08-12T18:04:51.633Z,3.17
2023-08-12T18:07:20.307Z,2.72
2023-08-12T18:09:47.622Z,2.97
2023-08-12T18:12:15.130Z,3.00
2023-08-12T18:14:42.606Z,2.87
2023-08-12T18:17:09.984Z,3.30
2023-08-12T18:19:37.641Z,3.38
2023-08-12T18:22:05.115Z,2.70
2023-08-12T18:24:33.808Z,3.78
2023-08-12T18:27:01.392Z,3.00
2023-08-12T18:29:29.461Z,3.97
2023-08-12T18:31:56.732Z,2.90
2023-08-12T18:34:24.119Z,3.08
2023-08-12T18:36:51.402Z,3.08
2023-08-12T18:39:18.800Z,3.13
2023-08-12T18:41:47.487Z,3.50
2023-08-12T18:44:14.829Z,3.75
2023-08-12T18:46:42.306Z,3.20
2023-08-12T18:49:09.604Z,3.45
2023-08-12T18:51:36.930Z,4.90
2023-08-12T18:54:05.430Z,7.47
2023-08-12T18:56:32.723Z,7.35
2023-08-12T18:59:01.446Z,8.23
2023-08-12T19:01:28.959Z,5.78
2023-08-12T19:03:56.347Z,5.17
2023-08-12T19:06:23.648Z,4.15
2023-08-12T19:08:51.272Z,4.30
2023-08-12T19:11:22.091Z,4.30
2023-08-12T19:13:49.459Z,4.38
2023-08-12T19:16:18.307Z,3.90
2023-08-12T19:18:45.610Z,4.53
2023-08-12T19:21:12.926Z,4.38
2023-08-12T19:23:40.477Z,4.95
2023-08-12T19:26:07.811Z,3.88
2023-08-12T19:28:35.145Z,4.10
2023-08-12T19:31:02.818Z,5.00
2023-08-12T19:33:31.684Z,4.57
2023-08-12T19:35:59.030Z,5.18
2023-08-12T19:38:26.368Z,4.85
2023-08-12T19:40:55.179Z,5.10
2023-08-12T19:43:22.503Z,4.72
2023-08-12T19:45:50.024Z,4.10
2023-08-12T19:48:18.109Z,4.60
2023-08-12T19:50:48.004Z,3.80
2023-08-12T19:53:15.459Z,4.07
2023-08-12T19:55:42.749Z,4.93
2023-08-12T19:58:10.042Z,3.83
2023-08-12T20:00:37.382Z,4.10
2023-08-12T20:03:05.247Z,4.05
2023-08-12T20:05:33.015Z,4.10
2023-08-12T20:08:01.863Z,4.38
2023-08-12T20:10:29.237Z,3.97
2023-08-12T20:12:56.549Z,4.22
2023-08-12T20:15:24.213Z,4.72
2023-08-12T20:17:51.467Z,4.13
2023-08-12T20:20:19.004Z,4.38
2023-08-12T20:23:03.035Z,4.20
2023-08-12T20:25:36.836Z,4.68
2023-08-12T20:28:05.356Z,4.25
2023-08-12T20:30:35.618Z,4.13
2023-08-12T20:33:04.292Z,4.18
2023-08-12T20:35:32.362Z,3.70
2023-08-12T20:37:59.847Z,4.38
2023-08-12T20:40:27.214Z,4.30
2023-08-12T20:42:55.930Z,4.90
2023-08-12T20:45:24.978Z,4.93
2023-08-12T20:47:52.392Z,4.18
2023-08-12T20:50:19.917Z,4.10
2023-08-12T20:52:47.298Z,4.50
2023-08-12T20:55:14.638Z,4.27
2023-08-12T20:57:41.894Z,4.40
2023-08-12T21:00:13.472Z,4.03
2023-08-12T21:02:44.493Z,4.07
2023-08-12T21:05:11.899Z,4.35
2023-08-12T21:07:39.190Z,3.80
2023-08-12T21:10:07.324Z,4.20
2023-08-12T21:12:34.881Z,3.88
2023-08-12T21:15:02.202Z,4.20
2023-08-12T21:17:31.010Z,3.85
2023-08-12T21:19:59.111Z,4.20
2023-08-12T21:22:26.475Z,4.07
2023-08-12T21:24:53.814Z,3.95
2023-08-12T21:27:21.122Z,4.35
2023-08-12T21:29:48.369Z,4.18
2023-08-12T21:32:15.814Z,3.80
2023-08-12T21:34:44.770Z,4.15
2023-08-12T21:37:12.187Z,4.38
2023-08-12T21:39:39.486Z,4.20
2023-08-12T21:42:07.192Z,4.28
2023-08-12T21:44:34.494Z,5.43
2023-08-12T21:47:01.814Z,4.80
2023-08-12T21:49:29.136Z,4.13
2023-08-12T21:51:57.957Z,4.80
2023-08-12T21:54:25.236Z,4.18
2023-08-12T21:56:52.515Z,4.67
2023-08-12T21:59:20.418Z,4.45
2023-08-12T22:01:48.691Z,4.25
2023-08-12T22:04:16.104Z,4.28
2023-08-12T22:06:44.341Z,4.35
2023-08-12T22:09:13.235Z,5.37
2023-08-12T22:11:40.524Z,4.30
2023-08-12T22:14:08.351Z,4.38
2023-08-12T22:16:35.700Z,4.53
2023-08-12T22:19:03.336Z,4.60
2023-08-12T22:21:30.655Z,4.50
2023-08-12T22:23:58.009Z,4.80
2023-08-12T22:26:26.782Z,4.40
2023-08-12T22:28:54.121Z,3.95
2023-08-12T22:31:21.891Z,4.38
2023-08-12T22:33:49.265Z,4.30
2023-08-12T22:36:16.612Z,4.75
2023-08-12T22:38:44.004Z,4.10
2023-08-12T22:41:11.283Z,4.03
2023-08-12T22:43:40.032Z,4.07
2023-08-12T22:46:07.349Z,3.53
2023-08-12T22:48:34.691Z,3.90
2023-08-12T22:51:02.255Z,4.18
2023-08-12T22:53:29.637Z,4.57
2023-08-12T22:55:56.934Z,4.10
2023-08-12T22:58:42.664Z,4.13
2023-08-12T23:01:10.412Z,3.80
2023-08-12T23:03:37.875Z,4.32
2023-08-12T23:06:05.378Z,4.40
2023-08-12T23:08:32.890Z,4.32
2023-08-12T23:11:00.431Z,3.97
2023-08-12T23:13:27.824Z,3.87
2023-08-12T23:15:56.716Z,4.28
2023-08-12T23:18:26.793Z,4.70
2023-08-12T23:20:54.201Z,4.63
2023-08-12T23:23:21.691Z,4.57
2023-08-12T23:25:49.084Z,4.20
2023-08-12T23:28:16.404Z,4.53
2023-08-12T23:30:43.715Z,4.45
2023-08-12T23:33:13.076Z,4.53
2023-08-12T23:35:41.709Z,4.22
2023-08-12T23:38:09.482Z,4.30
2023-08-12T23:40:36.873Z,4.05
2023-08-12T23:43:04.579Z,4.47
2023-08-12T23:45:31.888Z,4.50
2023-08-12T23:47:59.286Z,4.20
2023-08-12T23:50:28.263Z,4.27
2023-08-12T23:52:55.664Z,4.63
2023-08-12T23:55:23.294Z,4.45
2023-08-12T23:57:50.625Z,3.63
